Slide Mountain Weather observations

Data are for 10 minute period ending at time listed.
 Day   Time   Solar   Ave.   Ave.  Ave.  Vector  Max.    Baro.  
  of    of     Rad.   Air    Rel.  Wind   Wind   Wind   Press.  
Year   Day            Temp.  Hum.  Speed  Dir.   Gust           
2026   (PST)  Kw/m2    F      %     mph   deg.    mph     mb.   
-----------------------------------------------------------------
 123   16:20   0.22   31.3   100   20.6   238     29.4    709.3 
 123   16:30   0.25   31.6   100   15.6   217     19.6    709.3 
 123   16:40   0.23   31.5   100   13.3   215     16.0    709.3 
 123   16:50   0.14   31.1   100   10.3   213     15.8    709.3 
 123   17:00   0.09   31.1   100    4.2   211      5.8    709.5 
 123   17:10   0.06   30.8   100    0.6   135      3.2    709.5 
 123   17:20   0.07   31.1   100    4.9    55     10.8    709.6 
 123   17:30   0.08   31.9   100    0.1    42      2.5    709.7 
 123   17:40   0.04   31.8   100    4.5    77      9.9    709.8 
 123   17:50   0.01   31.4   100    6.5    62     11.2    709.8 
 123   18:00   0.01   31.2   100    9.1    57     12.8    709.9 
 123   18:10   0.01   30.9   100    2.0   312     10.1    709.9 
 123   18:20   0.01   30.6   100   11.1   284     14.8    709.5 
 123   18:30   0.01   31.1   100   11.9   296     14.1    709.4 
 123   18:40   0.01   30.8   100    9.6   278     11.9    709.3 
 123   18:50   0.00   30.6   100    9.2   252     14.8    709.3 
 123   19:00   0.00   30.7   100   10.8   259     15.2    709.3 
 123   19:10   0.00   30.9   100    7.6   259     10.8    709.3 
 123   19:20   0.00   31.1   100    3.9   207      6.8    709.4 
 123   19:30   0.00   31.5   100    0.2   184      2.2    709.4 
 123   19:40   0.00   31.6   100    1.3   156      3.7    709.5 
 123   19:50   0.00   31.7   100    0.0   155      0.1    709.5 
 123   20:00   0.00   31.7   100    1.0   155      3.0    709.6 
 123   20:10   0.00   31.8   100    2.0   155      4.3    709.7 
 123   20:20   0.00   31.9   100    3.2    97      9.7    709.7 
 123   20:30   0.00   31.8   100    8.4    70     10.2    709.8 
 123   20:40   0.00   31.8   100    5.3    65      6.9    709.8 
 123   20:50   0.00   31.9    98    6.5    65      8.0    709.9 
 123   21:00   0.00   32.0    97    5.3    65      6.2    709.8 
 123   21:10   0.00   32.2    96    3.2    65      5.3    709.7 
 123   21:20   0.00   32.1    98   -0.0   245      0.0    709.7 
 123   21:30   0.00   32.1    97    0.0     0      0.0    709.7 
 123   21:40   0.00   32.3    98    0.0     0      0.0    709.6 
 123   21:50   0.00   32.2   100    0.0     0      0.0    709.6 
 123   22:00   0.00   31.8   100    0.0     0      0.0    709.5 
 123   22:10   0.00   31.9    99   -0.0   245      0.0    709.5 
 123   22:20   0.00   32.1    97    0.9    76      2.8    709.5 
 123   22:30   0.00   32.2    94    1.2   235      2.6    709.4 
 123   22:40   0.00   32.2    97    0.0     0      0.0    709.5 
 123   22:50   0.00   32.1    99    0.0     0      0.0    709.5 
 123   23:00   0.00   32.4    96    1.0   243      4.7    709.4 
 123   23:10   0.00   32.2    92    1.2   262      3.7    709.4 
 123   23:20   0.00   32.4    89    1.4   290      3.0    709.3 
 123   23:30   0.00   32.6    88    1.3   290      2.9    709.4 
 123   23:40   0.00   32.7    88    0.7   290      1.9    709.4 
 123   23:50   0.00   33.1    86    5.1   331      8.6    709.3 
 124    0:00   0.00   33.2    88    3.6   333      9.3    709.2 
 124    0:10   0.00   33.2    88    1.7    57      5.8    709.2 
 124    0:20   0.00   32.8    89    3.2   257      9.9    709.1 
 124    0:30   0.00   32.4    86    4.9   271      6.9    709.0 
 124    0:40   0.00   32.0    87    5.3   270      8.2    709.0 
 124    0:50   0.00   31.5    87    8.2   267     10.2    708.8 
 124    1:00   0.00   31.3    88    7.0   265      8.6    708.8 
 124    1:10   0.00   32.1    85    5.8   267      7.3    708.8 
 124    1:20   0.00   32.7    83    4.7   284      8.4    708.8 
 124    1:30   0.00   32.8    82    6.7   309      8.3    708.6 
 124    1:40   0.00   33.3    82    1.8   314      5.0    708.6 
 124    1:50   0.00   33.7    79    4.3    25      8.3    708.6 
 124    2:00   0.00   32.5    84    0.1    79      1.1    708.6 
 124    2:10   0.00   32.2    86    0.0   211      0.1    708.7 
 124    2:20   0.00   31.7    86    4.4   309      8.8    708.7 
 124    2:30   0.00   31.3    86   10.4   307     16.3    708.6 
 124    2:40   0.00   31.1    86    7.3   307      9.8    708.5 
 124    2:50   0.00   31.1    86    8.5   318     11.3    708.4 
 124    3:00   0.00   31.4    84    8.8   323     13.0    708.4 
 124    3:10   0.00   31.6    80   12.5   323     15.6    708.3 
 124    3:20   0.00   31.3    79   13.5   326     15.6    708.2 
 124    3:30   0.00   31.8    78   17.2   335     25.4    708.1 
 124    3:40   0.00   32.5    78   23.1   333     29.6    707.9 
 124    3:50   0.00   32.8    78   19.8   340     22.7    707.9 
 124    4:00   0.00   32.9    79   21.5   340     26.7    707.9 
 124    4:10   0.00   32.6    80   24.1   342     28.9    707.8 
 124    4:20   0.00   32.2    83   22.5   345     29.6    707.8 
 124    4:30   0.00   32.0    84   20.8   342     23.6    707.9 
 124    4:40   0.00   32.4    82   20.2   357     23.8    707.8 
 124    4:50   0.00   32.8    80   18.5    12     21.8    707.8 
 124    5:00   0.00   33.2    79   20.5    11     24.3    707.9 
 124    5:10   0.00   33.5    78   21.9    16     26.8    707.8 
 124    5:20   0.01   33.6    78   18.5    15     23.8    707.8 
 124    5:30   0.01   33.5    79   14.6     4     19.1    708.0 
 124    5:40   0.02   33.4    79   13.9   349     17.8    708.0 
 124    5:50   0.04   33.7    79   12.3   345     18.5    708.0 
 124    6:00   0.05   33.6    79   17.0    13     22.8    708.0 
 124    6:10   0.05   33.5    80   17.8    10     23.2    708.0 
 124    6:20   0.06   33.4    80   18.7    10     23.5    708.0 
 124    6:30   0.06   33.6    80   18.1    14     21.1    708.0 
 124    6:40   0.08   33.8    79   18.5     8     21.6    708.1 
 124    6:50   0.08   34.1    78   14.9    11     20.5    708.1 
 124    7:00   0.10   34.4    73   15.1    14     22.0    708.1 
 124    7:10   0.06   33.9    74   18.1    25     27.1    708.1 
 124    7:20   0.07   34.0    73   18.6    31     27.0    708.1 
 124    7:30   0.04   33.7    78   13.9    28     18.5    708.1 
 124    7:40   0.09   31.8    91   20.9    17     27.4    708.0 
 124    7:50   0.12   31.2    97   17.5    12     27.6    708.1 
 124    8:00   0.15   31.0    99   20.2    14     26.8    708.1 
 124    8:10   0.11   31.4    96   16.5    20     25.7    708.1 
 124    8:20   0.12   31.2    99   17.9    22     23.0    708.1 
 124    8:30   0.14   31.1   100   13.2    29     21.3    708.2 
 124    8:40   0.25   31.8   100    6.7   346      9.7    708.2 
 124    8:50   0.17   32.1   100    7.5    19     17.1    708.1 
 124    9:00   0.18   32.9    91   11.7    22     16.7    708.1 
 124    9:10   0.07   32.7    93   10.0    14     15.5    708.2 
 124    9:20   0.19   32.4    98   10.4     6     15.1    708.2 
 124    9:30   0.17   32.4    99   15.1   355     25.0    708.2 
 124    9:40   0.09   31.9   100   17.2   350     24.7    708.1 
 124    9:50   0.15   31.8    98   20.6    19     34.8    708.1 
 124   10:00   0.30   32.2    91   16.2    36     33.2    708.2 
 124   10:10   0.22   32.3    91   13.0    28     18.1    708.4 
 124   10:20   0.19   32.1    93   10.4    28     14.5    708.4 
 124   10:30   0.20   32.3    91   12.6    51     17.5    708.5 
 124   10:40   0.17   32.0    94   12.3    43     21.6    708.4 
 124   10:50   0.15   31.7    99   13.5    52     16.6    708.4 
 124   11:00   0.15   31.8    98    7.8    51     12.7    708.4 
 124   11:10   0.14   31.7   100    3.9    21      6.8    708.3 
 124   11:20   0.17   32.0   100    3.1    40      6.2    708.3 
 124   11:30   0.15   32.0   100    4.6    66      7.6    708.3 
 124   11:40   0.10   31.8   100    8.2    59     12.6    708.3 
 124   11:50   0.14   31.6   100    8.0   106     11.9    708.3 
 124   12:00   0.12   31.3   100    3.4   110      9.7    708.2 
 124   12:10   0.12   31.7   100    0.3   259      2.6    708.1 
 124   12:20   0.06   31.9   100    0.2   267      1.4    708.2 
 124   12:30   0.24   32.0   100    5.8   262     14.0    707.9 
 124   12:40   0.45   32.1   100    9.7   274     13.4    707.7 
 124   12:50   0.77   32.8   100    8.7   269     12.0    707.8 
 124   13:00   0.30   32.8   100    5.3   260      9.3    707.8 
 124   13:10   0.12   32.7   100    4.8    89     15.9    708.1 
 124   13:20   0.40   33.0   100    6.2   207     11.6    708.0 
 124   13:30   0.60   33.7   100   11.0   256     14.2    707.8 
 124   13:40   0.26   33.2   100   10.5   261     12.6    707.8 
 124   13:50   0.16   32.8   100   10.5   255     16.2    707.8 
 124   14:00   0.11   32.4   100    9.3   250     11.9    707.8 
 124   14:10   0.16   32.5   100   10.3   250     12.7    707.7 
 124   14:20   0.17   32.5   100   12.4   251     16.2    707.7 
 124   14:30   0.16   32.6   100   11.2   264     17.3    707.6 
 124   14:40   0.18   32.5   100   12.0   267     15.3    707.4 
 124   14:50   0.07   32.3   100   11.1   262     16.0    707.3 
 124   15:00   0.04   31.7   100   15.7   255     22.8    707.1 
 124   15:10   0.06   30.7   100   23.5   252     33.6    706.7 
 124   15:20   0.03   30.4   100   15.0   252     28.6    706.8 
 124   15:30   0.03   30.5   100    9.4   230     18.1    707.4 
 124   15:40   0.02   29.8   100   13.7   245     22.2    707.5 
 124   15:50   0.03   29.7   100   16.5   262     22.5    707.2 
 124   16:00   0.04   30.1   100    8.1   262     15.3    707.4 
 124   16:10   0.03   30.0   100   11.8   268     14.9    707.3 

Return to Slide Mountain graphs page.


Western Regional Climate Center,wrcc@dri.edu